Overview Statistics Trail Chart Weather Telemetry Raw packets
 

This is the latest recevied weather packets stored in our database for station/object IONIA-WX. If no packets are shown the sender has not sent any weather packets the latest 10 day(s).

<< 22 23 24 25 26 27 28 >>
Time Temp. Humidity Pressure Rain* Wind** Luminosity Snow
1788102921 22.22° C 75% 986.4 hPa 0 mm - - -
1788102018 21.67° C 75% 986.4 hPa 0 mm - - -
1788101122 21.67° C 82% 987.6 hPa 0.51 mm - - -
1788100468 20.56° C 82% 987.6 hPa 0.51 mm - - -
1788059716 20° C 86% 987.8 hPa 0.51 mm - - -
1788058821 20° C 86% 987.8 hPa 0.51 mm - - -
1788057921 20° C 80% 988.7 hPa 0 mm - - -
1788057016 20° C 79% 988.9 hPa 0 mm - - -
1788056120 20.56° C 79% 989 hPa 0 mm - - -
1788055217 20.56° C 79% 989 hPa 0 mm - - -
1788054316 20.56° C 75% 988.1 hPa 0 mm - - -
1788053420 20.56° C 75% 988.1 hPa 0 mm - - -
1788052517 20.56° C 75% 988.1 hPa 0 mm - - -
1788051617 20.56° C 75% 988.1 hPa 0 mm - - -
1788050716 21.11° C 73% 989.1 hPa 0 mm - - -
1788049820 21.11° C 71% 988.6 hPa 0 mm - - -
1788048916 21.11° C 71% 988.6 hPa 0 mm - - -
1788048020 21.11° C 71% 988.6 hPa 0 mm - - -
1788047116 21.67° C 70% 989.3 hPa 0 mm - - -
1788046220 21.67° C 61% 988.2 hPa 0 mm - - -
1788045317 22.22° C 61% 988.2 hPa 0 mm - - -
1788044420 22.22° C 61% 988.2 hPa 0 mm - - -
1788043516 22.78° C 62% 989.1 hPa 0 mm - - -
1788042620 24.44° C 58% 988.9 hPa 0 mm - - -
1788041717 24.44° C 54% 988.9 hPa 0 mm - - -

* Rain latest hour (hover to see other rain measurements)
** Current wind speed in m/s (hover to see current wind gust speed)